sensor_id;sensor_type;location;lat;lon;timestamp;P1;durP1;ratioP1;P2;durP2;ratioP2
63688;SDS011;54895;40.928;14.480;2024-03-22T00:01:45;17.48;;;12.40;;
63688;SDS011;54895;40.928;14.480;2024-03-22T00:04:12;17.33;;;11.65;;
63688;SDS011;54895;40.928;14.480;2024-03-22T00:06:42;17.73;;;10.57;;
63688;SDS011;54895;40.928;14.480;2024-03-22T00:09:10;15.02;;;9.88;;
63688;SDS011;54895;40.928;14.480;2024-03-22T00:11:36;16.33;;;9.63;;
63688;SDS011;54895;40.928;14.480;2024-03-22T00:14:04;12.35;;;8.40;;
63688;SDS011;54895;40.928;14.480;2024-03-22T00:16:30;15.88;;;9.60;;
63688;SDS011;54895;40.928;14.480;2024-03-22T00:18:57;16.27;;;9.70;;
63688;SDS011;54895;40.928;14.480;2024-03-22T00:21:23;16.23;;;9.45;;
63688;SDS011;54895;40.928;14.480;2024-03-22T00:23:49;17.30;;;9.95;;
63688;SDS011;54895;40.928;14.480;2024-03-22T00:26:16;15.95;;;9.60;;
63688;SDS011;54895;40.928;14.480;2024-03-22T00:28:42;15.63;;;9.63;;
63688;SDS011;54895;40.928;14.480;2024-03-22T00:31:09;14.32;;;9.10;;
63688;SDS011;54895;40.928;14.480;2024-03-22T00:33:35;12.52;;;8.93;;
63688;SDS011;54895;40.928;14.480;2024-03-22T00:36:02;15.25;;;9.18;;
63688;SDS011;54895;40.928;14.480;2024-03-22T00:38:28;16.52;;;10.57;;
63688;SDS011;54895;40.928;14.480;2024-03-22T00:40:54;18.40;;;10.13;;
63688;SDS011;54895;40.928;14.480;2024-03-22T00:43:21;15.77;;;10.27;;
63688;SDS011;54895;40.928;14.480;2024-03-22T00:45:48;13.40;;;9.07;;
63688;SDS011;54895;40.928;14.480;2024-03-22T00:48:14;18.58;;;9.70;;
63688;SDS011;54895;40.928;14.480;2024-03-22T00:50:42;14.95;;;9.50;;
63688;SDS011;54895;40.928;14.480;2024-03-22T00:53:09;14.40;;;9.75;;
63688;SDS011;54895;40.928;14.480;2024-03-22T00:55:36;16.85;;;9.95;;
63688;SDS011;54895;40.928;14.480;2024-03-22T00:58:03;15.65;;;9.40;;
63688;SDS011;54895;40.928;14.480;2024-03-22T01:00:29;17.67;;;9.65;;
63688;SDS011;54895;40.928;14.480;2024-03-22T01:02:56;16.42;;;9.48;;
63688;SDS011;54895;40.928;14.480;2024-03-22T01:05:22;14.30;;;8.48;;
63688;SDS011;54895;40.928;14.480;2024-03-22T01:07:49;15.63;;;8.38;;
63688;SDS011;54895;40.928;14.480;2024-03-22T01:10:15;12.50;;;7.53;;
63688;SDS011;54895;40.928;14.480;2024-03-22T01:12:42;13.85;;;8.00;;
63688;SDS011;54895;40.928;14.480;2024-03-22T01:15:09;13.63;;;8.07;;
63688;SDS011;54895;40.928;14.480;2024-03-22T01:17:35;11.45;;;7.50;;
63688;SDS011;54895;40.928;14.480;2024-03-22T01:20:02;13.68;;;7.63;;
63688;SDS011;54895;40.928;14.480;2024-03-22T01:22:29;11.63;;;7.20;;
63688;SDS011;54895;40.928;14.480;2024-03-22T01:24:56;12.68;;;7.53;;
63688;SDS011;54895;40.928;14.480;2024-03-22T01:27:23;15.23;;;8.00;;
63688;SDS011;54895;40.928;14.480;2024-03-22T01:29:50;16.38;;;8.02;;
63688;SDS011;54895;40.928;14.480;2024-03-22T01:32:17;11.73;;;7.88;;
63688;SDS011;54895;40.928;14.480;2024-03-22T01:34:44;11.25;;;7.78;;
63688;SDS011;54895;40.928;14.480;2024-03-22T01:37:13;12.65;;;8.38;;
63688;SDS011;54895;40.928;14.480;2024-03-22T01:39:40;14.80;;;8.27;;
63688;SDS011;54895;40.928;14.480;2024-03-22T01:42:07;14.77;;;8.50;;
63688;SDS011;54895;40.928;14.480;2024-03-22T01:44:34;15.13;;;9.00;;
63688;SDS011;54895;40.928;14.480;2024-03-22T01:47:01;12.55;;;8.63;;
63688;SDS011;54895;40.928;14.480;2024-03-22T01:49:28;11.95;;;8.73;;
63688;SDS011;54895;40.928;14.480;2024-03-22T01:51:56;16.27;;;8.38;;
63688;SDS011;54895;40.928;14.480;2024-03-22T01:54:23;14.73;;;8.80;;
63688;SDS011;54895;40.928;14.480;2024-03-22T01:56:49;16.23;;;9.02;;
63688;SDS011;54895;40.928;14.480;2024-03-22T01:59:16;17.60;;;9.52;;
63688;SDS011;54895;40.928;14.480;2024-03-22T02:01:45;15.00;;;9.80;;
63688;SDS011;54895;40.928;14.480;2024-03-22T02:04:12;14.95;;;9.25;;
63688;SDS011;54895;40.928;14.480;2024-03-22T02:06:40;14.23;;;9.27;;
63688;SDS011;54895;40.928;14.480;2024-03-22T02:09:07;16.20;;;10.00;;
63688;SDS011;54895;40.928;14.480;2024-03-22T02:11:37;13.75;;;8.88;;
63688;SDS011;54895;40.928;14.480;2024-03-22T02:14:06;12.63;;;9.05;;
63688;SDS011;54895;40.928;14.480;2024-03-22T02:16:33;15.27;;;9.80;;
63688;SDS011;54895;40.928;14.480;2024-03-22T02:19:01;16.40;;;10.45;;
63688;SDS011;54895;40.928;14.480;2024-03-22T02:21:29;16.58;;;9.63;;
63688;SDS011;54895;40.928;14.480;2024-03-22T02:23:55;14.48;;;9.43;;
63688;SDS011;54895;40.928;14.480;2024-03-22T02:26:21;15.07;;;9.65;;
63688;SDS011;54895;40.928;14.480;2024-03-22T02:28:48;15.13;;;9.52;;
63688;SDS011;54895;40.928;14.480;2024-03-22T02:31:14;16.58;;;9.98;;
63688;SDS011;54895;40.928;14.480;2024-03-22T02:33:40;15.07;;;8.45;;
63688;SDS011;54895;40.928;14.480;2024-03-22T02:36:07;14.43;;;10.18;;
63688;SDS011;54895;40.928;14.480;2024-03-22T02:38:34;13.52;;;8.95;;
63688;SDS011;54895;40.928;14.480;2024-03-22T02:41:01;12.15;;;9.10;;
63688;SDS011;54895;40.928;14.480;2024-03-22T02:43:27;14.90;;;9.40;;
63688;SDS011;54895;40.928;14.480;2024-03-22T02:45:56;13.85;;;9.23;;
63688;SDS011;54895;40.928;14.480;2024-03-22T02:48:22;13.65;;;9.85;;
63688;SDS011;54895;40.928;14.480;2024-03-22T02:50:48;12.98;;;9.23;;
63688;SDS011;54895;40.928;14.480;2024-03-22T02:53:14;13.75;;;9.75;;
63688;SDS011;54895;40.928;14.480;2024-03-22T02:55:41;13.43;;;9.63;;
63688;SDS011;54895;40.928;14.480;2024-03-22T02:58:07;15.50;;;10.73;;
63688;SDS011;54895;40.928;14.480;2024-03-22T03:00:38;11.77;;;8.48;;
63688;SDS011;54895;40.928;14.480;2024-03-22T03:03:05;10.85;;;6.00;;
63688;SDS011;54895;40.928;14.480;2024-03-22T03:05:31;7.72;;;4.75;;
63688;SDS011;54895;40.928;14.480;2024-03-22T03:07:58;9.52;;;5.53;;
63688;SDS011;54895;40.928;14.480;2024-03-22T03:10:25;11.88;;;6.47;;
63688;SDS011;54895;40.928;14.480;2024-03-22T03:12:54;8.77;;;6.10;;
63688;SDS011;54895;40.928;14.480;2024-03-22T03:15:20;10.52;;;6.78;;
63688;SDS011;54895;40.928;14.480;2024-03-22T03:17:48;11.85;;;7.05;;
63688;SDS011;54895;40.928;14.480;2024-03-22T03:20:14;10.65;;;6.45;;
63688;SDS011;54895;40.928;14.480;2024-03-22T03:22:41;12.63;;;6.75;;
63688;SDS011;54895;40.928;14.480;2024-03-22T03:25:07;10.65;;;7.22;;
63688;SDS011;54895;40.928;14.480;2024-03-22T03:27:34;11.18;;;7.00;;
63688;SDS011;54895;40.928;14.480;2024-03-22T03:30:01;10.85;;;7.38;;
63688;SDS011;54895;40.928;14.480;2024-03-22T03:32:27;12.45;;;6.90;;
63688;SDS011;54895;40.928;14.480;2024-03-22T03:34:54;11.70;;;7.15;;
63688;SDS011;54895;40.928;14.480;2024-03-22T03:37:20;12.45;;;7.32;;
63688;SDS011;54895;40.928;14.480;2024-03-22T03:39:46;14.15;;;6.88;;
63688;SDS011;54895;40.928;14.480;2024-03-22T03:42:13;10.45;;;6.93;;
63688;SDS011;54895;40.928;14.480;2024-03-22T03:44:39;10.02;;;6.72;;
63688;SDS011;54895;40.928;14.480;2024-03-22T03:47:07;11.82;;;7.10;;
63688;SDS011;54895;40.928;14.480;2024-03-22T03:49:34;10.25;;;6.57;;
63688;SDS011;54895;40.928;14.480;2024-03-22T03:52:00;11.63;;;6.45;;
63688;SDS011;54895;40.928;14.480;2024-03-22T03:54:26;9.98;;;5.55;;
63688;SDS011;54895;40.928;14.480;2024-03-22T03:56:54;8.77;;;5.55;;
63688;SDS011;54895;40.928;14.480;2024-03-22T03:59:21;12.15;;;5.47;;
63688;SDS011;54895;40.928;14.480;2024-03-22T04:01:47;10.38;;;5.90;;
63688;SDS011;54895;40.928;14.480;2024-03-22T04:04:13;9.43;;;5.45;;
63688;SDS011;54895;40.928;14.480;2024-03-22T04:06:39;8.48;;;5.18;;
63688;SDS011;54895;40.928;14.480;2024-03-22T04:09:06;11.07;;;5.65;;
63688;SDS011;54895;40.928;14.480;2024-03-22T04:11:32;11.18;;;5.72;;
63688;SDS011;54895;40.928;14.480;2024-03-22T04:13:58;8.57;;;5.15;;
63688;SDS011;54895;40.928;14.480;2024-03-22T04:16:24;10.00;;;5.97;;
63688;SDS011;54895;40.928;14.480;2024-03-22T04:18:53;8.80;;;5.72;;
63688;SDS011;54895;40.928;14.480;2024-03-22T04:21:19;12.68;;;5.82;;
63688;SDS011;54895;40.928;14.480;2024-03-22T04:23:45;7.43;;;5.50;;
63688;SDS011;54895;40.928;14.480;2024-03-22T04:26:11;8.95;;;5.90;;
63688;SDS011;54895;40.928;14.480;2024-03-22T04:28:38;12.75;;;6.15;;
63688;SDS011;54895;40.928;14.480;2024-03-22T04:31:05;10.15;;;6.25;;
63688;SDS011;54895;40.928;14.480;2024-03-22T04:33:36;9.63;;;6.00;;
63688;SDS011;54895;40.928;14.480;2024-03-22T04:36:03;12.73;;;6.00;;
63688;SDS011;54895;40.928;14.480;2024-03-22T04:38:30;12.15;;;6.00;;
63688;SDS011;54895;40.928;14.480;2024-03-22T04:40:57;11.00;;;6.68;;
63688;SDS011;54895;40.928;14.480;2024-03-22T04:43:23;10.88;;;6.57;;
63688;SDS011;54895;40.928;14.480;2024-03-22T04:45:50;9.48;;;6.07;;
63688;SDS011;54895;40.928;14.480;2024-03-22T04:48:17;11.68;;;7.18;;
63688;SDS011;54895;40.928;14.480;2024-03-22T04:50:45;10.98;;;6.30;;
63688;SDS011;54895;40.928;14.480;2024-03-22T04:53:12;11.88;;;7.22;;
63688;SDS011;54895;40.928;14.480;2024-03-22T04:55:38;9.15;;;6.38;;
63688;SDS011;54895;40.928;14.480;2024-03-22T04:58:04;10.80;;;7.50;;
63688;SDS011;54895;40.928;14.480;2024-03-22T05:00:31;13.00;;;7.43;;
63688;SDS011;54895;40.928;14.480;2024-03-22T05:02:57;10.77;;;7.85;;
63688;SDS011;54895;40.928;14.480;2024-03-22T05:05:24;13.07;;;8.05;;
63688;SDS011;54895;40.928;14.480;2024-03-22T05:07:50;12.43;;;8.55;;
63688;SDS011;54895;40.928;14.480;2024-03-22T05:10:16;13.90;;;8.50;;
63688;SDS011;54895;40.928;14.480;2024-03-22T05:12:42;12.00;;;8.60;;
63688;SDS011;54895;40.928;14.480;2024-03-22T05:15:09;15.65;;;9.75;;
63688;SDS011;54895;40.928;14.480;2024-03-22T05:17:35;15.43;;;9.82;;
63688;SDS011;54895;40.928;14.480;2024-03-22T05:20:01;13.70;;;9.85;;
63688;SDS011;54895;40.928;14.480;2024-03-22T05:22:28;15.85;;;9.90;;
63688;SDS011;54895;40.928;14.480;2024-03-22T05:24:55;12.85;;;9.07;;
63688;SDS011;54895;40.928;14.480;2024-03-22T05:27:21;14.90;;;9.13;;
63688;SDS011;54895;40.928;14.480;2024-03-22T05:29:47;12.23;;;9.57;;
63688;SDS011;54895;40.928;14.480;2024-03-22T05:32:14;16.45;;;9.95;;
63688;SDS011;54895;40.928;14.480;2024-03-22T05:34:40;14.98;;;9.70;;
63688;SDS011;54895;40.928;14.480;2024-03-22T05:37:06;16.30;;;10.20;;
63688;SDS011;54895;40.928;14.480;2024-03-22T05:39:34;16.40;;;9.77;;
63688;SDS011;54895;40.928;14.480;2024-03-22T05:42:01;19.08;;;9.45;;
63688;SDS011;54895;40.928;14.480;2024-03-22T05:44:27;19.27;;;9.43;;
63688;SDS011;54895;40.928;14.480;2024-03-22T05:46:53;16.95;;;8.98;;
63688;SDS011;54895;40.928;14.480;2024-03-22T05:49:19;16.90;;;9.65;;
63688;SDS011;54895;40.928;14.480;2024-03-22T05:51:46;15.45;;;8.75;;
63688;SDS011;54895;40.928;14.480;2024-03-22T05:54:12;17.42;;;9.40;;
63688;SDS011;54895;40.928;14.480;2024-03-22T05:56:38;14.88;;;9.10;;
63688;SDS011;54895;40.928;14.480;2024-03-22T05:59:05;15.80;;;9.57;;
63688;SDS011;54895;40.928;14.480;2024-03-22T06:01:31;16.23;;;9.43;;
63688;SDS011;54895;40.928;14.480;2024-03-22T06:03:58;13.55;;;8.50;;
63688;SDS011;54895;40.928;14.480;2024-03-22T06:06:24;15.35;;;10.07;;
63688;SDS011;54895;40.928;14.480;2024-03-22T06:08:53;20.88;;;12.55;;
63688;SDS011;54895;40.928;14.480;2024-03-22T06:11:20;15.30;;;10.00;;
63688;SDS011;54895;40.928;14.480;2024-03-22T06:13:49;17.40;;;10.18;;
63688;SDS011;54895;40.928;14.480;2024-03-22T06:16:16;15.48;;;9.68;;
63688;SDS011;54895;40.928;14.480;2024-03-22T06:18:43;16.00;;;9.38;;
63688;SDS011;54895;40.928;14.480;2024-03-22T06:21:10;13.52;;;9.57;;
63688;SDS011;54895;40.928;14.480;2024-03-22T06:23:37;15.50;;;9.25;;
63688;SDS011;54895;40.928;14.480;2024-03-22T06:26:03;12.18;;;8.68;;
63688;SDS011;54895;40.928;14.480;2024-03-22T06:28:29;16.23;;;8.90;;
63688;SDS011;54895;40.928;14.480;2024-03-22T06:30:55;26.23;;;17.42;;
63688;SDS011;54895;40.928;14.480;2024-03-22T06:33:22;17.13;;;10.00;;
63688;SDS011;54895;40.928;14.480;2024-03-22T06:35:48;15.90;;;10.55;;
63688;SDS011;54895;40.928;14.480;2024-03-22T06:38:14;14.85;;;9.93;;
63688;SDS011;54895;40.928;14.480;2024-03-22T06:40:40;15.70;;;9.23;;
63688;SDS011;54895;40.928;14.480;2024-03-22T06:43:07;16.13;;;10.00;;
63688;SDS011;54895;40.928;14.480;2024-03-22T06:45:35;25.70;;;9.30;;
63688;SDS011;54895;40.928;14.480;2024-03-22T06:48:01;15.32;;;9.45;;
63688;SDS011;54895;40.928;14.480;2024-03-22T06:50:28;17.85;;;10.20;;
63688;SDS011;54895;40.928;14.480;2024-03-22T06:52:55;13.95;;;9.55;;
63688;SDS011;54895;40.928;14.480;2024-03-22T06:55:21;14.43;;;8.95;;
63688;SDS011;54895;40.928;14.480;2024-03-22T06:57:49;30.67;;;10.88;;
63688;SDS011;54895;40.928;14.480;2024-03-22T07:00:16;17.65;;;9.52;;
63688;SDS011;54895;40.928;14.480;2024-03-22T07:02:42;16.05;;;10.13;;
63688;SDS011;54895;40.928;14.480;2024-03-22T07:05:08;19.30;;;10.68;;
63688;SDS011;54895;40.928;14.480;2024-03-22T07:07:35;12.85;;;8.30;;
63688;SDS011;54895;40.928;14.480;2024-03-22T07:10:02;10.48;;;7.72;;
63688;SDS011;54895;40.928;14.480;2024-03-22T07:12:29;13.02;;;8.50;;
63688;SDS011;54895;40.928;14.480;2024-03-22T07:14:55;17.25;;;9.48;;
63688;SDS011;54895;40.928;14.480;2024-03-22T07:17:22;21.13;;;9.15;;
63688;SDS011;54895;40.928;14.480;2024-03-22T07:19:53;15.82;;;8.23;;
63688;SDS011;54895;40.928;14.480;2024-03-22T07:22:20;16.45;;;7.50;;
63688;SDS011;54895;40.928;14.480;2024-03-22T07:24:50;14.52;;;7.72;;
63688;SDS011;54895;40.928;14.480;2024-03-22T07:27:17;13.32;;;6.70;;
63688;SDS011;54895;40.928;14.480;2024-03-22T07:29:44;8.95;;;5.00;;
63688;SDS011;54895;40.928;14.480;2024-03-22T07:32:10;16.63;;;6.75;;
63688;SDS011;54895;40.928;14.480;2024-03-22T07:34:36;12.48;;;5.88;;
63688;SDS011;54895;40.928;14.480;2024-03-22T07:37:02;10.25;;;5.10;;
63688;SDS011;54895;40.928;14.480;2024-03-22T07:39:30;11.93;;;5.57;;
63688;SDS011;54895;40.928;14.480;2024-03-22T07:41:56;13.75;;;6.97;;
63688;SDS011;54895;40.928;14.480;2024-03-22T07:44:22;11.50;;;7.50;;
63688;SDS011;54895;40.928;14.480;2024-03-22T07:46:54;12.90;;;7.65;;
63688;SDS011;54895;40.928;14.480;2024-03-22T07:49:20;12.40;;;7.07;;
63688;SDS011;54895;40.928;14.480;2024-03-22T07:51:47;12.10;;;7.68;;
63688;SDS011;54895;40.928;14.480;2024-03-22T07:54:13;13.52;;;6.72;;
63688;SDS011;54895;40.928;14.480;2024-03-22T07:56:39;12.55;;;7.05;;
63688;SDS011;54895;40.928;14.480;2024-03-22T07:59:08;12.77;;;6.88;;
63688;SDS011;54895;40.928;14.480;2024-03-22T08:01:35;10.55;;;5.90;;
63688;SDS011;54895;40.928;14.480;2024-03-22T08:04:02;8.93;;;4.80;;
63688;SDS011;54895;40.928;14.480;2024-03-22T08:06:31;5.20;;;3.20;;
63688;SDS011;54895;40.928;14.480;2024-03-22T08:08:57;5.47;;;2.80;;
63688;SDS011;54895;40.928;14.480;2024-03-22T08:11:23;4.13;;;2.67;;
63688;SDS011;54895;40.928;14.480;2024-03-22T08:13:50;5.43;;;3.05;;
63688;SDS011;54895;40.928;14.480;2024-03-22T08:16:18;8.20;;;3.60;;
63688;SDS011;54895;40.928;14.480;2024-03-22T08:18:48;7.68;;;4.78;;
63688;SDS011;54895;40.928;14.480;2024-03-22T08:21:15;7.28;;;4.72;;
63688;SDS011;54895;40.928;14.480;2024-03-22T08:23:41;8.25;;;4.82;;
63688;SDS011;54895;40.928;14.480;2024-03-22T08:26:07;7.45;;;4.25;;
63688;SDS011;54895;40.928;14.480;2024-03-22T08:28:34;6.00;;;3.90;;
63688;SDS011;54895;40.928;14.480;2024-03-22T08:31:03;6.28;;;3.72;;
63688;SDS011;54895;40.928;14.480;2024-03-22T08:33:32;5.68;;;3.47;;
63688;SDS011;54895;40.928;14.480;2024-03-22T08:35:58;5.95;;;3.78;;
63688;SDS011;54895;40.928;14.480;2024-03-22T08:38:27;6.97;;;3.92;;
63688;SDS011;54895;40.928;14.480;2024-03-22T08:40:53;6.32;;;3.85;;
63688;SDS011;54895;40.928;14.480;2024-03-22T08:43:21;6.95;;;3.95;;
63688;SDS011;54895;40.928;14.480;2024-03-22T08:45:49;7.15;;;3.50;;
63688;SDS011;54895;40.928;14.480;2024-03-22T08:48:15;5.35;;;3.40;;
63688;SDS011;54895;40.928;14.480;2024-03-22T08:50:43;8.25;;;3.50;;
63688;SDS011;54895;40.928;14.480;2024-03-22T08:53:10;4.47;;;2.75;;
63688;SDS011;54895;40.928;14.480;2024-03-22T08:55:38;5.75;;;3.03;;
63688;SDS011;54895;40.928;14.480;2024-03-22T08:58:04;4.18;;;2.90;;
63688;SDS011;54895;40.928;14.480;2024-03-22T09:00:31;4.22;;;2.60;;
63688;SDS011;54895;40.928;14.480;2024-03-22T09:02:58;3.95;;;2.65;;
63688;SDS011;54895;40.928;14.480;2024-03-22T09:05:24;2.85;;;2.10;;
63688;SDS011;54895;40.928;14.480;2024-03-22T09:07:51;4.80;;;2.47;;
63688;SDS011;54895;40.928;14.480;2024-03-22T09:10:20;5.55;;;2.42;;
63688;SDS011;54895;40.928;14.480;2024-03-22T09:12:46;5.80;;;2.40;;
63688;SDS011;54895;40.928;14.480;2024-03-22T09:15:13;4.50;;;2.20;;
63688;SDS011;54895;40.928;14.480;2024-03-22T09:17:40;4.07;;;2.30;;
63688;SDS011;54895;40.928;14.480;2024-03-22T09:20:06;6.35;;;2.80;;
63688;SDS011;54895;40.928;14.480;2024-03-22T09:22:33;4.65;;;2.50;;
63688;SDS011;54895;40.928;14.480;2024-03-22T09:25:01;5.15;;;2.78;;
63688;SDS011;54895;40.928;14.480;2024-03-22T09:27:28;4.88;;;2.50;;
63688;SDS011;54895;40.928;14.480;2024-03-22T09:29:54;2.88;;;2.00;;
63688;SDS011;54895;40.928;14.480;2024-03-22T09:32:21;4.00;;;2.30;;
63688;SDS011;54895;40.928;14.480;2024-03-22T09:34:51;3.83;;;2.25;;
63688;SDS011;54895;40.928;14.480;2024-03-22T09:37:17;4.72;;;2.50;;
63688;SDS011;54895;40.928;14.480;2024-03-22T09:39:44;3.53;;;2.30;;
63688;SDS011;54895;40.928;14.480;2024-03-22T09:42:13;3.90;;;2.53;;
63688;SDS011;54895;40.928;14.480;2024-03-22T09:44:47;3.38;;;2.25;;
63688;SDS011;54895;40.928;14.480;2024-03-22T09:47:15;2.40;;;1.95;;
63688;SDS011;54895;40.928;14.480;2024-03-22T09:49:42;2.67;;;1.67;;
63688;SDS011;54895;40.928;14.480;2024-03-22T09:52:12;4.65;;;2.20;;
63688;SDS011;54895;40.928;14.480;2024-03-22T09:54:46;4.18;;;2.60;;
63688;SDS011;54895;40.928;14.480;2024-03-22T09:57:16;3.42;;;2.30;;
63688;SDS011;54895;40.928;14.480;2024-03-22T09:59:44;3.42;;;2.30;;
63688;SDS011;54895;40.928;14.480;2024-03-22T10:02:12;5.22;;;2.78;;
63688;SDS011;54895;40.928;14.480;2024-03-22T10:04:42;3.65;;;2.47;;
63688;SDS011;54895;40.928;14.480;2024-03-22T10:07:09;4.88;;;2.58;;
63688;SDS011;54895;40.928;14.480;2024-03-22T10:09:36;3.40;;;2.33;;
63688;SDS011;54895;40.928;14.480;2024-03-22T10:12:03;4.60;;;2.20;;
63688;SDS011;54895;40.928;14.480;2024-03-22T10:14:30;2.53;;;1.92;;
63688;SDS011;54895;40.928;14.480;2024-03-22T10:16:58;3.70;;;2.40;;
63688;SDS011;54895;40.928;14.480;2024-03-22T10:19:25;3.47;;;2.20;;
63688;SDS011;54895;40.928;14.480;2024-03-22T10:24:28;2.10;;;1.10;;
63688;SDS011;54895;40.928;14.480;2024-03-22T10:26:55;2.65;;;1.17;;
63688;SDS011;54895;40.928;14.480;2024-03-22T10:29:22;2.30;;;1.17;;
63688;SDS011;54895;40.928;14.480;2024-03-22T10:31:53;4.57;;;0.85;;
63688;SDS011;54895;40.928;14.480;2024-03-22T10:34:21;2.80;;;1.23;;
63688;SDS011;54895;40.928;14.480;2024-03-22T10:36:50;1.83;;;1.50;;
63688;SDS011;54895;40.928;14.480;2024-03-22T10:39:17;2.25;;;1.30;;
63688;SDS011;54895;40.928;14.480;2024-03-22T10:41:45;6.38;;;1.65;;
63688;SDS011;54895;40.928;14.480;2024-03-22T10:44:12;5.90;;;1.77;;
63688;SDS011;54895;40.928;14.480;2024-03-22T10:46:46;4.75;;;1.60;;
63688;SDS011;54895;40.928;14.480;2024-03-22T10:49:18;3.90;;;2.03;;
63688;SDS011;54895;40.928;14.480;2024-03-22T10:51:52;3.05;;;1.33;;
63688;SDS011;54895;40.928;14.480;2024-03-22T10:54:26;1.88;;;1.40;;
63688;SDS011;54895;40.928;14.480;2024-03-22T10:56:57;2.13;;;1.30;;
63688;SDS011;54895;40.928;14.480;2024-03-22T10:59:24;2.22;;;1.50;;
63688;SDS011;54895;40.928;14.480;2024-03-22T11:01:51;4.07;;;1.40;;
63688;SDS011;54895;40.928;14.480;2024-03-22T11:04:19;3.47;;;1.95;;
63688;SDS011;54895;40.928;14.480;2024-03-22T11:06:49;1.95;;;1.17;;
63688;SDS011;54895;40.928;14.480;2024-03-22T11:09:23;4.93;;;1.30;;
63688;SDS011;54895;40.928;14.480;2024-03-22T11:11:51;2.20;;;1.23;;
63688;SDS011;54895;40.928;14.480;2024-03-22T11:14:19;2.47;;;1.60;;
63688;SDS011;54895;40.928;14.480;2024-03-22T11:19:21;1.88;;;1.13;;
63688;SDS011;54895;40.928;14.480;2024-03-22T11:21:48;1.85;;;1.40;;
63688;SDS011;54895;40.928;14.480;2024-03-22T11:24:15;2.13;;;1.27;;
63688;SDS011;54895;40.928;14.480;2024-03-22T11:26:41;3.08;;;1.40;;
63688;SDS011;54895;40.928;14.480;2024-03-22T11:29:10;3.65;;;1.77;;
63688;SDS011;54895;40.928;14.480;2024-03-22T11:31:36;3.35;;;1.60;;
63688;SDS011;54895;40.928;14.480;2024-03-22T11:34:03;2.45;;;1.30;;
63688;SDS011;54895;40.928;14.480;2024-03-22T11:36:30;2.17;;;1.42;;
63688;SDS011;54895;40.928;14.480;2024-03-22T11:38:57;2.60;;;1.35;;
63688;SDS011;54895;40.928;14.480;2024-03-22T11:41:25;2.58;;;1.33;;
63688;SDS011;54895;40.928;14.480;2024-03-22T11:43:55;4.40;;;1.38;;
63688;SDS011;54895;40.928;14.480;2024-03-22T11:46:24;1.80;;;1.23;;
63688;SDS011;54895;40.928;14.480;2024-03-22T11:48:53;1.50;;;1.27;;
63688;SDS011;54895;40.928;14.480;2024-03-22T11:51:20;1.33;;;1.10;;
63688;SDS011;54895;40.928;14.480;2024-03-22T11:53:53;5.68;;;1.70;;
63688;SDS011;54895;40.928;14.480;2024-03-22T11:56:22;2.25;;;1.00;;
63688;SDS011;54895;40.928;14.480;2024-03-22T11:58:58;2.45;;;0.95;;
63688;SDS011;54895;40.928;14.480;2024-03-22T12:01:26;2.13;;;1.02;;
63688;SDS011;54895;40.928;14.480;2024-03-22T12:03:53;1.80;;;1.20;;
63688;SDS011;54895;40.928;14.480;2024-03-22T12:06:20;2.55;;;1.38;;
63688;SDS011;54895;40.928;14.480;2024-03-22T12:08:47;3.53;;;1.80;;
63688;SDS011;54895;40.928;14.480;2024-03-22T12:11:14;3.03;;;0.85;;
63688;SDS011;54895;40.928;14.480;2024-03-22T12:13:40;3.03;;;1.50;;
63688;SDS011;54895;40.928;14.480;2024-03-22T12:16:07;1.83;;;1.27;;
63688;SDS011;54895;40.928;14.480;2024-03-22T12:18:34;1.85;;;1.20;;
63688;SDS011;54895;40.928;14.480;2024-03-22T12:21:03;3.88;;;1.40;;
63688;SDS011;54895;40.928;14.480;2024-03-22T12:23:30;2.50;;;1.48;;
63688;SDS011;54895;40.928;14.480;2024-03-22T12:25:56;1.90;;;1.30;;
63688;SDS011;54895;40.928;14.480;2024-03-22T12:28:23;2.15;;;1.30;;
63688;SDS011;54895;40.928;14.480;2024-03-22T12:30:50;2.95;;;1.50;;
63688;SDS011;54895;40.928;14.480;2024-03-22T12:33:16;2.92;;;1.48;;
63688;SDS011;54895;40.928;14.480;2024-03-22T12:35:43;2.33;;;1.50;;
63688;SDS011;54895;40.928;14.480;2024-03-22T12:38:10;3.58;;;1.55;;
63688;SDS011;54895;40.928;14.480;2024-03-22T12:40:38;1.90;;;1.30;;
63688;SDS011;54895;40.928;14.480;2024-03-22T12:43:08;2.85;;;1.60;;
63688;SDS011;54895;40.928;14.480;2024-03-22T12:45:37;2.75;;;1.45;;
63688;SDS011;54895;40.928;14.480;2024-03-22T12:48:04;1.52;;;1.10;;
63688;SDS011;54895;40.928;14.480;2024-03-22T12:50:31;3.25;;;1.63;;
63688;SDS011;54895;40.928;14.480;2024-03-22T12:52:59;2.28;;;1.25;;
63688;SDS011;54895;40.928;14.480;2024-03-22T12:55:26;1.30;;;1.20;;
63688;SDS011;54895;40.928;14.480;2024-03-22T12:57:54;1.67;;;1.38;;
63688;SDS011;54895;40.928;14.480;2024-03-22T13:00:21;1.00;;;0.90;;
63688;SDS011;54895;40.928;14.480;2024-03-22T13:02:50;4.47;;;1.63;;
63688;SDS011;54895;40.928;14.480;2024-03-22T13:05:18;2.83;;;1.30;;
63688;SDS011;54895;40.928;14.480;2024-03-22T13:07:45;2.15;;;1.30;;
63688;SDS011;54895;40.928;14.480;2024-03-22T13:10:12;4.22;;;1.50;;
63688;SDS011;54895;40.928;14.480;2024-03-22T13:12:38;2.08;;;1.50;;
63688;SDS011;54895;40.928;14.480;2024-03-22T13:15:05;3.28;;;2.08;;
63688;SDS011;54895;40.928;14.480;2024-03-22T13:17:32;2.72;;;1.88;;
63688;SDS011;54895;40.928;14.480;2024-03-22T13:19:58;3.33;;;2.30;;
63688;SDS011;54895;40.928;14.480;2024-03-22T13:22:28;3.53;;;1.83;;
63688;SDS011;54895;40.928;14.480;2024-03-22T13:24:55;3.42;;;1.90;;
63688;SDS011;54895;40.928;14.480;2024-03-22T13:27:24;2.60;;;1.77;;
63688;SDS011;54895;40.928;14.480;2024-03-22T13:29:52;2.75;;;2.22;;
63688;SDS011;54895;40.928;14.480;2024-03-22T13:32:19;2.20;;;1.67;;
63688;SDS011;54895;40.928;14.480;2024-03-22T13:34:46;2.42;;;1.60;;
63688;SDS011;54895;40.928;14.480;2024-03-22T13:37:13;3.33;;;1.80;;
63688;SDS011;54895;40.928;14.480;2024-03-22T13:39:40;3.45;;;2.00;;
63688;SDS011;54895;40.928;14.480;2024-03-22T13:42:06;2.65;;;1.80;;
63688;SDS011;54895;40.928;14.480;2024-03-22T13:44:33;2.53;;;1.88;;
63688;SDS011;54895;40.928;14.480;2024-03-22T13:47:00;2.85;;;1.23;;
63688;SDS011;54895;40.928;14.480;2024-03-22T13:49:27;2.67;;;1.70;;
63688;SDS011;54895;40.928;14.480;2024-03-22T13:51:54;6.80;;;4.25;;
63688;SDS011;54895;40.928;14.480;2024-03-22T13:54:25;3.45;;;1.90;;
63688;SDS011;54895;40.928;14.480;2024-03-22T13:56:51;5.40;;;3.35;;
63688;SDS011;54895;40.928;14.480;2024-03-22T13:59:18;3.03;;;1.92;;
63688;SDS011;54895;40.928;14.480;2024-03-22T14:01:45;4.05;;;2.30;;
63688;SDS011;54895;40.928;14.480;2024-03-22T14:04:13;3.08;;;1.90;;
63688;SDS011;54895;40.928;14.480;2024-03-22T14:06:42;6.80;;;2.20;;
63688;SDS011;54895;40.928;14.480;2024-03-22T14:09:09;6.70;;;2.28;;
63688;SDS011;54895;40.928;14.480;2024-03-22T14:11:36;4.93;;;2.50;;
63688;SDS011;54895;40.928;14.480;2024-03-22T14:14:03;4.85;;;2.08;;
63688;SDS011;54895;40.928;14.480;2024-03-22T14:16:31;2.67;;;2.13;;
63688;SDS011;54895;40.928;14.480;2024-03-22T14:18:58;5.65;;;2.60;;
63688;SDS011;54895;40.928;14.480;2024-03-22T14:21:24;4.10;;;2.45;;
63688;SDS011;54895;40.928;14.480;2024-03-22T14:23:51;2.42;;;1.65;;
63688;SDS011;54895;40.928;14.480;2024-03-22T14:26:18;4.53;;;2.47;;
63688;SDS011;54895;40.928;14.480;2024-03-22T14:28:45;6.13;;;3.22;;
63688;SDS011;54895;40.928;14.480;2024-03-22T14:31:13;4.82;;;2.67;;